Patterson, Illinois
Current Conditions -  °F | °C
As of 4:15 AM on Thursday 27 Nov 2014 (Local Time) from KPPQ Reporting Station
Overcast Overcast  
Wind Chill: 20°   Ceiling: 1200
Heat Index: 28°   Visibility: 5mi
Dew Point: 25°   Wind: 8mph
Humidity: 88%   Direction: 310°NW
Pressure: 30.38"   Gusts: NA
Location:  39.48°N, 90.48°W
Report Text: KPPQ 271015Z AUTO 31007KT 5SM BKN012 OVC019 M02/M04 A3038 RMK AO2 T10201037 PWINO
Loading
Personal Weather Stations






























Interactive Weather Map New forecast layout! Learn more

10-Day Weather Forecast

Advertisements
Track Severe Weather on mobile